Time;durP1;ratioP1;P1;durP2;ratioP2;P2;SDS_P1;SDS_P2;PMS_P1;PMS_P2;Temp;Humidity;BMP_temperature;BMP_pressure;BME280_temperature;BME280_humidity;BME280_pressure;Samples;Min_cycle;Max_cycle;Signal;HPM_P1;HPM_P2
2022/02/23 00:00:46;;;;;;;2.75;1.73;;;3.10;51.80;;;;;;5122527;28;20184;-65
2022/02/23 00:03:19;;;;;;;1.92;1.65;;;3.00;51.60;;;;;;5122950;28;20674;-65
2022/02/23 00:05:49;;;;;;;2.25;1.45;;;3.00;51.40;;;;;;5121965;28;20204;-63
2022/02/23 00:08:20;;;;;;;2.85;1.67;;;2.90;53.50;;;;;;5121144;28;20271;-64
2022/02/23 00:10:54;;;;;;;1.92;1.60;;;2.90;51.50;;;;;;5116939;28;20200;-65
2022/02/23 00:13:25;;;;;;;4.70;2.50;;;2.80;50.80;;;;;;5121095;28;20302;-64
2022/02/23 00:15:56;;;;;;;2.08;1.95;;;2.80;51.90;;;;;;5122032;28;20192;-63
2022/02/23 00:18:28;;;;;;;1.58;1.50;;;2.90;52.40;;;;;;5123017;28;20199;-65
2022/02/23 00:21:02;;;;;;;2.00;1.70;;;2.80;51.20;;;;;;5123030;28;20210;-65
2022/02/23 00:23:33;;;;;;;2.65;2.00;;;2.70;51.30;;;;;;5122343;28;20693;-66
2022/02/23 00:26:04;;;;;;;1.80;1.70;;;2.50;50.80;;;;;;5121545;28;20209;-65
2022/02/23 00:28:44;;;;;;;2.63;1.67;;;2.40;51.30;;;;;;5123180;28;20214;-66
2022/02/23 00:31:15;;;;;;;1.80;1.70;;;2.40;51.40;;;;;;5123153;28;20218;-65
2022/02/23 00:33:50;;;;;;;2.20;1.98;;;2.50;53.20;;;;;;5112817;28;20657;-64
2022/02/23 00:36:22;;;;;;;3.17;2.08;;;2.40;51.40;;;;;;5123551;28;20267;-65
2022/02/23 00:38:55;;;;;;;1.55;1.45;;;2.40;54.00;;;;;;5121105;28;20276;-64
2022/02/23 00:41:26;;;;;;;2.00;1.70;;;2.30;51.20;;;;;;5119708;28;20542;-65
2022/02/23 00:43:57;;;;;;;2.65;2.05;;;2.20;52.10;;;;;;5120750;28;20344;-64
2022/02/23 00:46:28;;;;;;;3.00;1.60;;;2.20;51.90;;;;;;5122925;28;20238;-64
2022/02/23 00:49:02;;;;;;;2.20;1.95;;;2.10;52.20;;;;;;5122109;28;20202;-64
2022/02/23 00:51:33;;;;;;;3.78;2.13;;;2.10;51.90;;;;;;5119563;28;20260;-63
2022/02/23 00:54:04;;;;;;;2.53;1.70;;;2.00;52.60;;;;;;5119598;28;20234;-65
2022/02/23 00:56:35;;;;;;;2.30;1.75;;;2.00;53.40;;;;;;5120293;28;20219;-65
2022/02/23 00:59:06;;;;;;;2.28;1.80;;;2.00;52.20;;;;;;5121904;28;20532;-65
2022/02/23 01:01:38;;;;;;;1.88;1.77;;;1.90;52.60;;;;;;5122193;28;20243;-64
2022/02/23 01:04:12;;;;;;;2.55;1.73;;;1.80;52.80;;;;;;5122420;28;20198;-64
2022/02/23 01:06:42;;;;;;;3.63;2.30;;;1.80;53.00;;;;;;5122105;28;20267;-65
2022/02/23 01:09:14;;;;;;;1.55;1.45;;;1.70;52.30;;;;;;5121955;28;20207;-64
2022/02/23 01:11:45;;;;;;;3.22;2.10;;;1.70;53.30;;;;;;5123088;28;20235;-64
2022/02/23 01:14:16;;;;;;;6.40;1.80;;;1.60;51.60;;;;;;5121874;28;20226;-64
2022/02/23 01:16:48;;;;;;;2.13;1.92;;;1.50;51.30;;;;;;5115859;28;20207;-64
2022/02/23 01:19:21;;;;;;;1.90;1.80;;;1.50;51.50;;;;;;5121211;28;20223;-64
2022/02/23 01:21:52;;;;;;;3.15;2.28;;;1.40;52.10;;;;;;5122157;28;20200;-65
2022/02/23 01:24:23;;;;;;;2.25;1.80;;;1.30;51.40;;;;;;5117356;28;20291;-65
2022/02/23 01:26:54;;;;;;;2.20;2.00;;;1.30;53.60;;;;;;5117907;28;20200;-64
2022/02/23 01:29:25;;;;;;;2.70;2.50;;;1.20;52.30;;;;;;5119587;28;20307;-63
2022/02/23 01:31:56;;;;;;;2.80;2.00;;;1.20;53.30;;;;;;5120743;28;20267;-63
2022/02/23 01:34:31;;;;;;;5.32;1.95;;;1.10;52.00;;;;;;5111743;28;20279;-63
2022/02/23 01:37:02;;;;;;;2.65;2.08;;;1.10;52.90;;;;;;5121379;28;20204;-64
2022/02/23 01:39:35;;;;;;;2.80;1.70;;;1.10;53.40;;;;;;5121759;28;20196;-63
2022/02/23 01:42:11;;;;;;;2.45;2.25;;;1.00;53.00;;;;;;5123180;28;20200;-65
2022/02/23 01:44:45;;;;;;;2.47;1.80;;;0.90;53.00;;;;;;5126311;28;20219;-65
2022/02/23 01:47:16;;;;;;;2.85;2.10;;;0.90;52.70;;;;;;5124389;28;20238;-63
2022/02/23 01:49:56;;;;;;;1.83;1.65;;;0.80;53.00;;;;;;5125109;28;20222;-62
2022/02/23 01:52:27;;;;;;;3.03;2.30;;;0.80;53.00;;;;;;5125527;28;20231;-64
2022/02/23 01:54:58;;;;;;;2.50;2.00;;;0.70;53.60;;;;;;5124369;28;20238;-63
2022/02/23 01:57:29;;;;;;;2.30;2.08;;;0.70;54.00;;;;;;5123791;28;20291;-61
2022/02/23 02:00:06;;;;;;;2.35;1.90;;;0.70;53.40;;;;;;5124800;28;20218;-62
2022/02/23 02:02:37;;;;;;;2.75;2.40;;;0.60;53.60;;;;;;5124548;28;20199;-63
2022/02/23 02:05:20;;;;;;;2.50;2.20;;;0.60;53.60;;;;;;5125036;28;20287;-65
2022/02/23 02:07:51;;;;;;;3.40;2.30;;;0.60;54.40;;;;;;5125226;28;20199;-63
2022/02/23 02:10:22;;;;;;;2.05;1.88;;;0.60;54.10;;;;;;5124628;28;20228;-61
2022/02/23 02:12:53;;;;;;;2.03;1.90;;;0.60;53.10;;;;;;5124481;28;20195;-71
2022/02/23 02:15:24;;;;;;;2.50;2.30;;;0.50;52.90;;;;;;5124582;28;20283;-63
2022/02/23 02:17:55;;;;;;;2.28;2.17;;;0.40;53.50;;;;;;5124489;28;20254;-61
2022/02/23 02:20:28;;;;;;;2.67;2.47;;;0.40;53.20;;;;;;5124708;28;20184;-61
2022/02/23 02:23:00;;;;;;;2.05;1.85;;;0.40;55.30;;;;;;5125339;28;20269;-62
2022/02/23 02:25:37;;;;;;;3.65;2.28;;;0.40;54.40;;;;;;5123700;28;20211;-62
2022/02/23 02:28:08;;;;;;;5.28;1.90;;;0.40;54.00;;;;;;5121204;28;20283;-62
2022/02/23 02:30:42;;;;;;;2.95;2.35;;;0.40;53.70;;;;;;5123637;28;20196;-61
2022/02/23 02:33:13;;;;;;;2.65;2.42;;;0.30;54.00;;;;;;5125169;28;20272;-61
2022/02/23 02:35:44;;;;;;;3.17;2.20;;;0.30;54.30;;;;;;5123671;28;20274;-61
2022/02/23 02:38:18;;;;;;;2.72;2.53;;;0.30;54.20;;;;;;5120356;28;20195;-61
2022/02/23 02:40:51;;;;;;;6.70;2.60;;;0.30;55.00;;;;;;5124081;28;20272;-61
2022/02/23 02:43:24;;;;;;;2.17;1.98;;;0.20;54.10;;;;;;5123887;28;20195;-61
2022/02/23 02:45:55;;;;;;;2.85;2.40;;;0.20;53.90;;;;;;5123533;28;20286;-63
2022/02/23 02:48:25;;;;;;;4.38;2.13;;;0.20;54.70;;;;;;5118556;28;20261;-62
2022/02/23 02:50:56;;;;;;;5.05;2.17;;;0.20;54.70;;;;;;5123799;28;20266;-62
2022/02/23 02:53:29;;;;;;;2.40;2.15;;;0.20;54.70;;;;;;5123001;28;20256;-61
2022/02/23 02:56:00;;;;;;;2.60;2.40;;;0.10;54.50;;;;;;5123546;28;20256;-61
2022/02/23 02:58:31;;;;;;;3.83;2.50;;;0.10;54.70;;;;;;5122361;28;20204;-61
2022/02/23 03:01:02;;;;;;;3.17;2.40;;;0.10;54.60;;;;;;5122069;28;20220;-60
2022/02/23 03:03:33;;;;;;;2.75;2.35;;;0.10;55.70;;;;;;5115637;28;20203;-60
2022/02/23 03:06:05;;;;;;;3.40;2.22;;;0.00;55.20;;;;;;5129426;27;20282;-61
2022/02/23 03:08:39;;;;;;;5.18;2.10;;;0.10;55.70;;;;;;5124331;27;20251;-60
2022/02/23 03:11:10;;;;;;;3.53;2.28;;;0.10;55.90;;;;;;5123391;28;20225;-60
2022/02/23 03:13:42;;;;;;;3.03;2.17;;;0.10;56.70;;;;;;5118971;28;20195;-61
2022/02/23 03:16:18;;;;;;;2.13;2.03;;;0.10;56.80;;;;;;5123436;28;20200;-61
2022/02/23 03:18:49;;;;;;;2.40;2.15;;;0.00;55.50;;;;;;5123004;28;20532;-61
2022/02/23 03:21:20;;;;;;;2.78;2.22;;;0.00;54.50;;;;;;5124256;28;20256;-60
2022/02/23 03:23:52;;;;;;;2.35;2.15;;;0.00;55.30;;;;;;5123548;28;20562;-63
2022/02/23 03:26:23;;;;;;;2.80;2.00;;;-0.10;54.70;;;;;;5123385;28;20200;-60
2022/02/23 03:28:54;;;;;;;4.65;2.58;;;-0.10;54.90;;;;;;5122145;28;20199;-61
2022/02/23 03:31:25;;;;;;;2.33;2.00;;;-0.10;54.40;;;;;;5122375;28;20341;-62
2022/02/23 03:33:56;;;;;;;2.53;2.33;;;-0.10;55.10;;;;;;5123609;28;20740;-63
2022/02/23 03:36:27;;;;;;;2.13;1.95;;;-0.10;55.70;;;;;;5119199;28;20267;-62
2022/02/23 03:38:59;;;;;;;1.85;1.75;;;-0.20;54.50;;;;;;5123034;28;20315;-61
2022/02/23 03:41:30;;;;;;;2.42;2.22;;;-0.20;54.10;;;;;;5123435;28;20635;-63
2022/02/23 03:44:06;;;;;;;1.92;1.83;;;-0.20;54.00;;;;;;5129076;27;20199;-59
2022/02/23 03:46:37;;;;;;;2.33;2.08;;;-0.20;54.40;;;;;;5121916;28;20242;-61
2022/02/23 03:49:08;;;;;;;2.17;2.03;;;-0.20;54.80;;;;;;5122358;28;20532;-62
2022/02/23 03:51:44;;;;;;;2.78;1.55;;;-0.20;54.20;;;;;;5122413;28;20642;-63
2022/02/23 03:54:17;;;;;;;2.20;2.00;;;-0.20;54.40;;;;;;5122451;28;20198;-62
2022/02/23 03:56:48;;;;;;;2.78;2.55;;;-0.30;54.60;;;;;;5122847;28;20255;-61
2022/02/23 03:59:18;;;;;;;3.17;2.88;;;-0.30;54.30;;;;;;5116935;28;20216;-62
2022/02/23 04:01:50;;;;;;;2.63;2.35;;;-0.30;56.00;;;;;;5123486;28;20286;-61
2022/02/23 04:04:21;;;;;;;2.10;1.80;;;-0.30;54.80;;;;;;5121949;28;20498;-62
2022/02/23 04:06:52;;;;;;;2.08;1.98;;;-0.30;53.80;;;;;;5122376;28;20228;-61
2022/02/23 04:09:24;;;;;;;1.70;1.60;;;-0.30;54.30;;;;;;5122645;28;20192;-61
2022/02/23 04:11:55;;;;;;;2.75;2.55;;;-0.40;53.70;;;;;;5123188;28;20204;-61
2022/02/23 04:14:26;;;;;;;2.20;2.10;;;-0.40;53.80;;;;;;5121606;28;20253;-61
2022/02/23 04:16:57;;;;;;;1.60;1.48;;;-0.40;53.70;;;;;;5114983;28;20204;-63
2022/02/23 04:19:28;;;;;;;2.15;1.95;;;-0.40;54.00;;;;;;5111543;28;20255;-63
2022/02/23 04:21:59;;;;;;;3.03;2.15;;;-0.40;54.30;;;;;;5122131;28;20290;-62
2022/02/23 04:24:32;;;;;;;2.85;1.90;;;-0.40;54.00;;;;;;5115791;28;20272;-62
2022/02/23 04:27:03;;;;;;;6.00;2.67;;;-0.40;55.40;;;;;;5106776;28;20236;-62
2022/02/23 04:29:34;;;;;;;2.13;1.90;;;-0.40;54.80;;;;;;5121002;28;20204;-62
2022/02/23 04:32:07;;;;;;;2.10;1.90;;;-0.40;54.60;;;;;;5120970;28;20204;-63
2022/02/23 04:34:38;;;;;;;4.50;2.47;;;-0.40;54.00;;;;;;5114176;28;20271;-62
2022/02/23 04:37:09;;;;;;;2.22;2.08;;;-0.40;54.50;;;;;;5121919;28;20270;-64
2022/02/23 04:39:42;;;;;;;2.25;2.05;;;-0.50;54.10;;;;;;5117855;28;20280;-63
2022/02/23 04:42:13;;;;;;;2.03;1.92;;;-0.50;53.60;;;;;;5120419;28;20200;-62
2022/02/23 04:44:44;;;;;;;2.38;2.00;;;-0.50;54.50;;;;;;5120193;28;20215;-62
2022/02/23 04:47:18;;;;;;;2.00;1.90;;;-0.50;55.90;;;;;;5118251;28;20208;-63
2022/02/23 04:49:49;;;;;;;3.90;2.17;;;-0.50;58.60;;;;;;5120137;28;20268;-64
2022/02/23 04:52:19;;;;;;;2.38;2.17;;;-0.50;55.70;;;;;;5119765;28;20199;-61
2022/02/23 04:54:52;;;;;;;2.80;2.00;;;-0.50;55.60;;;;;;5121056;28;20204;-63
2022/02/23 04:57:24;;;;;;;3.03;2.30;;;-0.50;54.80;;;;;;5121783;28;20227;-67
2022/02/23 04:59:56;;;;;;;2.10;1.70;;;-0.50;55.90;;;;;;5121223;28;20196;-65
2022/02/23 05:02:27;;;;;;;2.80;2.25;;;-0.50;55.20;;;;;;5119830;28;20234;-62
2022/02/23 05:05:00;;;;;;;1.70;1.52;;;-0.60;54.60;;;;;;5122337;28;20245;-63
2022/02/23 05:07:32;;;;;;;2.80;2.00;;;-0.60;53.60;;;;;;5121686;28;20196;-60
2022/02/23 05:10:04;;;;;;;1.92;1.83;;;-0.60;54.00;;;;;;5121722;28;20222;-60
2022/02/23 05:12:35;;;;;;;3.47;2.00;;;-0.60;53.80;;;;;;5122102;28;20196;-60
2022/02/23 05:15:07;;;;;;;2.55;1.95;;;-0.70;54.20;;;;;;5120381;28;20204;-61
2022/02/23 05:17:40;;;;;;;5.38;3.08;;;-0.70;54.20;;;;;;5125320;28;20192;-61
2022/02/23 05:20:12;;;;;;;4.25;1.80;;;-0.70;54.10;;;;;;5125522;28;20248;-62
2022/02/23 05:22:45;;;;;;;2.45;2.15;;;-0.70;52.70;;;;;;5124918;28;20203;-61
2022/02/23 05:25:18;;;;;;;2.00;1.80;;;-0.70;53.40;;;;;;5125088;28;20219;-61
2022/02/23 05:27:48;;;;;;;1.67;1.58;;;-0.70;53.00;;;;;;5123642;28;20203;-62
2022/02/23 05:30:20;;;;;;;3.60;1.77;;;-0.80;53.20;;;;;;5125081;28;20206;-61
2022/02/23 05:32:50;;;;;;;3.28;1.88;;;-0.80;53.20;;;;;;5126568;28;20237;-61
2022/02/23 05:35:22;;;;;;;2.45;1.92;;;-0.80;53.10;;;;;;5126054;28;20284;-62
2022/02/23 05:37:52;;;;;;;2.15;1.60;;;-0.80;53.10;;;;;;5126701;27;20670;-62
2022/02/23 05:40:25;;;;;;;3.40;1.73;;;-0.80;53.40;;;;;;5125755;28;20330;-62
2022/02/23 05:42:56;;;;;;;2.25;1.58;;;-0.90;53.40;;;;;;5126292;28;20264;-62
2022/02/23 05:45:31;;;;;;;2.03;1.70;;;-0.90;53.50;;;;;;5124694;28;20203;-61
2022/02/23 05:48:02;;;;;;;2.40;2.20;;;-0.90;53.40;;;;;;5125422;28;20239;-61
2022/02/23 05:50:33;;;;;;;2.65;2.10;;;-0.90;53.60;;;;;;5121265;28;20188;-62
2022/02/23 05:53:04;;;;;;;1.75;1.52;;;-0.90;53.80;;;;;;5125564;28;20231;-62
2022/02/23 05:55:36;;;;;;;1.70;1.60;;;-0.90;54.40;;;;;;5123834;28;20224;-61
2022/02/23 05:58:07;;;;;;;2.65;1.83;;;-0.90;54.90;;;;;;5124777;28;20280;-62
2022/02/23 06:00:38;;;;;;;2.17;1.50;;;-0.90;54.90;;;;;;5124243;28;20196;-60
2022/02/23 06:03:12;;;;;;;1.95;1.85;;;-1.00;55.50;;;;;;5122385;28;20255;-60
2022/02/23 06:05:43;;;;;;;3.83;1.90;;;-1.00;55.80;;;;;;5124748;28;20510;-60
2022/02/23 06:08:14;;;;;;;2.10;1.90;;;-1.00;55.20;;;;;;5125441;28;20200;-60
2022/02/23 06:10:46;;;;;;;2.20;2.00;;;-1.00;55.00;;;;;;5124181;28;20204;-60
2022/02/23 06:13:19;;;;;;;2.58;2.13;;;-1.10;56.10;;;;;;5125819;28;20217;-60
2022/02/23 06:15:49;;;;;;;1.85;1.65;;;-1.00;56.70;;;;;;5124783;28;20226;-60
2022/02/23 06:18:20;;;;;;;3.00;2.33;;;-1.10;55.70;;;;;;5118528;28;20202;-60
2022/02/23 06:20:51;;;;;;;2.92;2.33;;;-1.10;55.90;;;;;;5125527;28;20196;-60
2022/02/23 06:23:24;;;;;;;2.65;2.03;;;-1.10;56.20;;;;;;5125251;28;20184;-60
2022/02/23 06:25:57;;;;;;;1.50;1.40;;;-1.10;56.50;;;;;;5124961;28;20200;-60
2022/02/23 06:28:28;;;;;;;1.80;1.55;;;-1.10;55.40;;;;;;5124439;28;20208;-60
2022/02/23 06:30:59;;;;;;;3.50;1.75;;;-1.20;55.10;;;;;;5123690;28;20686;-60
2022/02/23 06:33:32;;;;;;;2.15;1.75;;;-1.20;55.30;;;;;;5124348;28;20192;-60
2022/02/23 06:36:03;;;;;;;1.95;1.33;;;-1.20;55.80;;;;;;5125811;28;20314;-60
2022/02/23 06:38:36;;;;;;;2.17;1.98;;;-1.20;55.80;;;;;;5124416;28;20260;-60
2022/02/23 06:41:12;;;;;;;4.45;2.08;;;-1.30;55.70;;;;;;5124109;28;20204;-60
2022/02/23 06:43:45;;;;;;;2.95;2.28;;;-1.30;55.10;;;;;;5123764;28;20210;-60
2022/02/23 06:46:17;;;;;;;2.00;1.90;;;-1.30;54.50;;;;;;5116220;28;20255;-60
2022/02/23 06:48:49;;;;;;;2.05;1.90;;;-1.30;54.50;;;;;;5119815;28;20259;-60
2022/02/23 06:51:20;;;;;;;1.65;1.52;;;-1.30;53.80;;;;;;5124416;28;20364;-60
2022/02/23 06:53:52;;;;;;;1.48;1.38;;;-1.30;53.40;;;;;;5124001;28;20279;-60
2022/02/23 06:56:24;;;;;;;1.80;1.60;;;-1.40;53.20;;;;;;5124430;28;20294;-60
2022/02/23 06:58:55;;;;;;;2.80;1.80;;;-1.40;53.10;;;;;;5111470;28;20299;-61
2022/02/23 07:01:26;;;;;;;2.22;1.42;;;-1.40;53.30;;;;;;5124233;28;20206;-61
2022/02/23 07:03:57;;;;;;;2.30;2.10;;;-1.40;54.50;;;;;;5120202;28;20204;-61
2022/02/23 07:06:28;;;;;;;2.20;2.00;;;-1.40;55.30;;;;;;5124234;28;20203;-62
2022/02/23 07:08:59;;;;;;;2.10;1.90;;;-1.40;54.60;;;;;;5121699;28;20208;-62
2022/02/23 07:11:34;;;;;;;5.75;2.10;;;-1.40;54.30;;;;;;5124453;28;20206;-61
2022/02/23 07:14:06;;;;;;;2.05;1.80;;;-1.40;54.60;;;;;;5123429;28;20364;-61
2022/02/23 07:16:37;;;;;;;2.45;1.85;;;-1.50;55.00;;;;;;5123224;28;20222;-61
2022/02/23 07:19:08;;;;;;;1.70;1.60;;;-1.50;54.10;;;;;;5122090;28;20299;-61
2022/02/23 07:21:42;;;;;;;2.83;2.33;;;-1.60;54.30;;;;;;5124359;28;20196;-61
2022/02/23 07:24:13;;;;;;;2.10;1.60;;;-1.60;54.60;;;;;;5123099;28;20200;-61
2022/02/23 07:26:46;;;;;;;2.33;1.42;;;-1.60;54.40;;;;;;5123826;28;20683;-61
2022/02/23 07:29:21;;;;;;;1.45;1.45;;;-1.50;54.00;;;;;;5122896;28;20253;-61
2022/02/23 07:31:52;;;;;;;2.25;2.03;;;-1.60;53.40;;;;;;5123802;28;20644;-61
2022/02/23 07:34:23;;;;;;;2.58;1.83;;;-1.60;54.40;;;;;;5123011;28;20203;-61
2022/02/23 07:36:58;;;;;;;2.38;1.75;;;-1.60;54.50;;;;;;5124010;28;20253;-61
2022/02/23 07:39:29;;;;;;;1.50;1.40;;;-1.70;53.90;;;;;;5122880;28;20216;-61
2022/02/23 07:42:02;;;;;;;2.65;1.58;;;-1.60;54.10;;;;;;5123725;28;20279;-61
2022/02/23 07:44:53;;;;;;;2.45;1.52;;;-1.60;53.60;;;;;;5123131;28;20200;-61
2022/02/23 07:47:24;;;;;;;2.55;1.50;;;-1.70;52.90;;;;;;5123148;28;20303;-61
2022/02/23 07:49:55;;;;;;;1.58;1.20;;;-1.60;53.60;;;;;;5119419;28;20196;-61
2022/02/23 07:52:27;;;;;;;3.42;1.98;;;-1.70;53.10;;;;;;5123238;28;20194;-60
2022/02/23 07:54:58;;;;;;;1.60;1.50;;;-1.70;52.00;;;;;;5116915;28;20272;-60
2022/02/23 07:57:31;;;;;;;1.17;1.08;;;-1.70;52.30;;;;;;5123146;28;20235;-61
2022/02/23 08:00:02;;;;;;;1.10;1.10;;;-1.70;51.80;;;;;;5122969;28;20200;-60
2022/02/23 08:02:33;;;;;;;1.20;1.10;;;-1.70;51.40;;;;;;5121333;28;20196;-62
2022/02/23 08:05:05;;;;;;;3.13;1.77;;;-1.70;51.70;;;;;;5121523;28;20234;-60
2022/02/23 08:07:36;;;;;;;2.55;1.67;;;-1.70;51.30;;;;;;5121605;28;20206;-62
2022/02/23 08:10:09;;;;;;;1.33;1.23;;;-1.70;51.40;;;;;;5122978;28;20302;-60
2022/02/23 08:12:42;;;;;;;2.20;1.73;;;-1.70;51.40;;;;;;5122206;28;20286;-61
2022/02/23 08:20:48;;;;;;;2.15;1.45;;;-1.80;52.50;;;;;;5122614;28;20203;-60
2022/02/23 08:23:19;;;;;;;1.42;1.33;;;-1.80;52.50;;;;;;5122181;28;20231;-60
2022/02/23 08:25:49;;;;;;;2.42;1.30;;;-1.90;53.30;;;;;;5121710;28;20172;-61
2022/02/23 08:28:22;;;;;;;1.27;1.23;;;-1.80;53.00;;;;;;5118826;28;20582;-61
2022/02/23 08:30:54;;;;;;;1.67;1.13;;;-1.80;52.70;;;;;;5122787;28;20237;-60
2022/02/23 08:33:25;;;;;;;4.35;1.90;;;-1.90;53.80;;;;;;5123050;28;20251;-60
2022/02/23 08:35:56;;;;;;;1.73;1.50;;;-1.90;55.40;;;;;;5122646;28;20272;-61
2022/02/23 08:38:27;;;;;;;1.35;1.25;;;-1.90;54.60;;;;;;5122771;28;20234;-60
2022/02/23 08:40:58;;;;;;;2.47;1.55;;;-1.90;54.90;;;;;;5122617;28;20210;-60
2022/02/23 08:43:33;;;;;;;1.30;1.20;;;-2.00;56.00;;;;;;5123358;28;20640;-60
2022/02/23 08:46:05;;;;;;;1.50;1.40;;;-2.00;55.50;;;;;;5123013;28;20294;-60
2022/02/23 08:48:38;;;;;;;2.92;1.25;;;-2.00;54.60;;;;;;5122656;28;20200;-60
2022/02/23 08:51:21;;;;;;;2.22;1.30;;;-1.90;54.10;;;;;;5124661;28;20192;-59
2022/02/23 08:53:52;;;;;;;1.60;1.33;;;-2.00;53.80;;;;;;5126425;28;20268;-60
2022/02/23 08:56:23;;;;;;;1.55;1.45;;;-2.00;55.10;;;;;;5127133;28;20223;-60
2022/02/23 08:58:56;;;;;;;1.40;1.30;;;-2.00;55.00;;;;;;5126683;28;20215;-60
2022/02/23 09:01:29;;;;;;;1.40;1.30;;;-2.00;55.10;;;;;;5127123;27;20295;-60
2022/02/23 09:04:03;;;;;;;1.77;1.60;;;-2.00;54.90;;;;;;5114215;28;20195;-61
2022/02/23 09:06:35;;;;;;;1.33;1.23;;;-2.00;53.70;;;;;;5119931;28;20196;-60
2022/02/23 09:09:08;;;;;;;1.83;1.60;;;-2.00;53.90;;;;;;5124949;28;20223;-61
2022/02/23 09:11:38;;;;;;;1.50;1.40;;;-2.00;54.70;;;;;;5126873;28;20279;-60
2022/02/23 09:14:12;;;;;;;1.50;1.40;;;-2.10;54.20;;;;;;5126286;28;20207;-60
2022/02/23 09:16:44;;;;;;;1.55;1.40;;;-2.00;54.60;;;;;;5126224;28;20687;-60
2022/02/23 09:19:14;;;;;;;2.25;1.23;;;-2.10;54.60;;;;;;5126033;27;20226;-60
2022/02/23 09:21:45;;;;;;;1.67;1.58;;;-2.10;55.20;;;;;;5118012;28;20225;-60
2022/02/23 09:24:17;;;;;;;2.35;1.40;;;-2.10;54.70;;;;;;5125202;28;20196;-60
2022/02/23 09:26:48;;;;;;;2.00;1.35;;;-2.10;55.90;;;;;;5126982;28;20215;-60
2022/02/23 09:29:21;;;;;;;2.63;2.13;;;-2.10;55.80;;;;;;5125618;28;20203;-60
2022/02/23 09:31:52;;;;;;;1.83;1.63;;;-2.20;55.60;;;;;;5123893;28;20252;-60
2022/02/23 09:34:23;;;;;;;3.45;1.95;;;-2.30;56.90;;;;;;5126005;28;20287;-60
2022/02/23 09:36:54;;;;;;;1.40;1.30;;;-2.20;56.50;;;;;;5126454;28;20291;-60
2022/02/23 09:39:29;;;;;;;2.28;2.08;;;-2.20;56.80;;;;;;5125750;28;20219;-61
2022/02/23 09:42:01;;;;;;;1.90;1.80;;;-2.20;57.10;;;;;;5125827;28;20251;-61
2022/02/23 09:44:39;;;;;;;9.07;2.33;;;-2.30;55.80;;;;;;5124848;28;20187;-61
2022/02/23 09:47:18;;;;;;;2.70;2.45;;;-2.30;55.80;;;;;;5126295;28;20246;-60
2022/02/23 09:49:49;;;;;;;2.05;1.95;;;-2.30;57.50;;;;;;5125621;28;20199;-61
2022/02/23 09:52:24;;;;;;;2.38;1.70;;;-2.40;58.40;;;;;;5124806;28;20234;-61
2022/02/23 09:54:59;;;;;;;2.78;1.60;;;-2.40;57.80;;;;;;5125348;28;20290;-61
2022/02/23 09:57:30;;;;;;;1.20;1.10;;;-2.40;57.10;;;;;;5125309;28;20400;-61
2022/02/23 10:00:05;;;;;;;1.65;1.50;;;-2.40;55.50;;;;;;5124109;28;20185;-61
2022/02/23 10:02:36;;;;;;;2.45;1.27;;;-2.40;56.20;;;;;;5125780;28;20252;-61
2022/02/23 10:05:10;;;;;;;1.70;1.52;;;-2.40;57.40;;;;;;5123786;28;20214;-62
2022/02/23 10:07:41;;;;;;;2.95;1.52;;;-2.40;58.00;;;;;;5124943;28;20272;-61
2022/02/23 10:10:13;;;;;;;2.42;1.55;;;-2.50;57.50;;;;;;5125053;28;20263;-61
2022/02/23 10:12:44;;;;;;;2.05;1.67;;;-2.40;56.50;;;;;;5125313;28;20315;-61
2022/02/23 10:15:19;;;;;;;2.47;1.85;;;-2.50;54.50;;;;;;5126217;28;20215;-61
2022/02/23 10:17:52;;;;;;;1.58;1.50;;;-2.50;54.70;;;;;;5126354;28;20219;-61
2022/02/23 10:20:28;;;;;;;1.63;1.50;;;-2.40;55.30;;;;;;5124255;28;20199;-61
2022/02/23 10:23:00;;;;;;;1.70;1.60;;;-2.50;55.70;;;;;;5121883;28;20204;-61
2022/02/23 10:25:41;;;;;;;1.75;1.75;;;-2.50;56.50;;;;;;5124341;28;20196;-60
2022/02/23 10:28:14;;;;;;;2.10;2.00;;;-2.50;57.10;;;;;;5123794;28;20216;-60
2022/02/23 10:30:51;;;;;;;1.58;1.23;;;-2.50;55.40;;;;;;5110162;28;20628;-60
2022/02/23 10:33:23;;;;;;;2.10;1.65;;;-2.50;54.60;;;;;;5125765;28;20255;-61
2022/02/23 10:36:16;;;;;;;1.67;1.58;;;-2.50;54.30;;;;;;5125586;28;20191;-60
2022/02/23 10:38:50;;;;;;;1.58;1.13;;;-2.50;56.30;;;;;;5124474;28;20234;-60
2022/02/23 10:41:27;;;;;;;2.28;1.55;;;-2.50;57.60;;;;;;5125068;28;20213;-61
2022/02/23 10:43:58;;;;;;;2.03;1.20;;;-2.50;56.50;;;;;;5124149;27;20203;-61
2022/02/23 10:46:30;;;;;;;1.33;1.10;;;-2.60;57.00;;;;;;5124086;28;20235;-60
2022/02/23 10:49:02;;;;;;;1.33;1.23;;;-2.60;55.70;;;;;;5124983;28;20504;-60
2022/02/23 10:51:38;;;;;;;1.65;1.42;;;-2.60;56.80;;;;;;5114045;28;20275;-61
2022/02/23 10:54:10;;;;;;;1.85;1.75;;;-2.60;57.50;;;;;;5124263;28;20617;-60
2022/02/23 10:56:42;;;;;;;2.15;1.20;;;-2.50;57.40;;;;;;5124568;28;20227;-61
2022/02/23 10:59:15;;;;;;;2.17;1.52;;;-2.50;56.70;;;;;;5123919;28;20287;-60
2022/02/23 11:01:49;;;;;;;3.50;1.58;;;-2.50;55.40;;;;;;5124543;28;20198;-61
2022/02/23 11:04:21;;;;;;;2.05;1.60;;;-2.50;55.10;;;;;;5124129;28;20207;-60
2022/02/23 11:06:54;;;;;;;1.75;1.30;;;-2.60;54.70;;;;;;5124973;28;20196;-60
2022/02/23 11:09:26;;;;;;;2.85;1.73;;;-2.60;55.80;;;;;;5114611;28;20705;-60
2022/02/23 11:11:58;;;;;;;1.50;1.40;;;-2.60;56.60;;;;;;5124297;28;20204;-60
2022/02/23 11:14:30;;;;;;;4.60;1.58;;;-2.60;55.50;;;;;;5122969;28;20192;-60
2022/02/23 11:17:04;;;;;;;1.27;1.27;;;-2.70;56.00;;;;;;5124594;28;20263;-62
2022/02/23 11:19:39;;;;;;;2.13;1.15;;;-2.70;56.60;;;;;;5124704;28;20212;-60
2022/02/23 11:22:10;;;;;;;1.20;1.20;;;-2.70;56.00;;;;;;5124413;28;20267;-60
2022/02/23 11:24:42;;;;;;;1.02;1.02;;;-2.70;56.20;;;;;;5123302;28;20211;-59
2022/02/23 11:27:22;;;;;;;2.47;1.35;;;-2.70;56.30;;;;;;5107890;28;20203;-61
2022/02/23 11:30:05;;;;;;;1.73;1.50;;;-2.80;56.50;;;;;;5123811;28;20195;-60
2022/02/23 11:32:43;;;;;;;1.55;1.45;;;-2.70;56.00;;;;;;5124531;28;20204;-61
2022/02/23 11:35:14;;;;;;;1.90;1.48;;;-2.70;56.60;;;;;;5123625;28;20568;-61
2022/02/23 11:37:56;;;;;;;1.88;1.63;;;-2.80;55.40;;;;;;5124176;28;20188;-60
2022/02/23 11:40:27;;;;;;;1.88;1.70;;;-2.80;54.20;;;;;;5124219;28;20212;-60
2022/02/23 11:42:57;;;;;;;1.58;1.48;;;-2.70;55.60;;;;;;5123656;28;20667;-61
2022/02/23 11:45:33;;;;;;;1.90;1.70;;;-2.70;55.00;;;;;;5123976;28;20200;-61
2022/02/23 11:48:07;;;;;;;2.55;1.48;;;-2.80;53.60;;;;;;5124344;28;20206;-60
2022/02/23 11:50:38;;;;;;;1.90;1.15;;;-2.80;54.70;;;;;;5122898;28;20264;-60
2022/02/23 11:53:14;;;;;;;1.42;1.33;;;-2.80;54.90;;;;;;5122826;28;20206;-59
2022/02/23 11:55:45;;;;;;;2.13;1.50;;;-2.70;54.30;;;;;;5123659;28;20250;-60
2022/02/23 11:58:45;;;;;;;1.38;1.08;;;-2.80;54.50;;;;;;5117579;28;20215;-60
2022/02/23 12:01:19;;;;;;;0.80;0.80;;;-2.80;54.80;;;;;;5113800;28;20259;-60
2022/02/23 12:04:14;;;;;;;1.20;1.10;;;-2.80;54.30;;;;;;5123344;28;20199;-60
2022/02/23 12:07:10;;;;;;;3.10;1.50;;;-2.80;56.00;;;;;;5123730;28;20235;-60
2022/02/23 12:10:11;;;;;;;1.20;0.80;;;-2.80;55.70;;;;;;5113498;28;20282;-61
2022/02/23 12:12:43;;;;;;;1.95;1.00;;;-2.80;54.20;;;;;;5123045;28;20218;-61
2022/02/23 12:15:27;;;;;;;1.52;1.42;;;-2.80;53.50;;;;;;5122564;28;20263;-61
2022/02/23 12:18:00;;;;;;;2.30;1.58;;;-2.90;54.10;;;;;;5123428;28;20200;-61
2022/02/23 12:20:57;;;;;;;2.00;1.45;;;-2.90;54.70;;;;;;5123210;28;20208;-61
2022/02/23 12:23:46;;;;;;;1.75;1.63;;;-2.90;56.50;;;;;;5122550;28;20208;-60
2022/02/23 12:26:25;;;;;;;1.30;1.20;;;-2.90;56.10;;;;;;5124232;28;20283;-60
2022/02/23 12:29:01;;;;;;;2.42;2.20;;;-2.90;59.10;;;;;;5123016;28;20196;-60
2022/02/23 12:31:33;;;;;;;1.83;1.70;;;-2.80;69.80;;;;;;5123531;28;20206;-60
2022/02/23 12:34:07;;;;;;;1.45;1.35;;;-3.00;67.40;;;;;;5122228;28;20196;-61
2022/02/23 12:37:03;;;;;;;1.50;1.40;;;-3.00;63.80;;;;;;5122611;28;20195;-61
2022/02/23 12:39:34;;;;;;;1.75;1.63;;;-3.00;61.40;;;;;;5122669;28;20233;-60
2022/02/23 12:42:08;;;;;;;1.48;1.38;;;-3.20;61.70;;;;;;5122929;28;20238;-60
2022/02/23 12:44:42;;;;;;;1.73;1.50;;;-3.20;59.80;;;;;;5119120;28;20219;-60
2022/02/23 12:47:15;;;;;;;2.10;1.90;;;-3.30;60.90;;;;;;5107403;28;20184;-61
2022/02/23 12:49:46;;;;;;;3.40;2.13;;;-3.30;61.50;;;;;;5122799;28;20207;-61
2022/02/23 12:52:22;;;;;;;1.85;1.65;;;-3.30;60.50;;;;;;5122453;28;20187;-60
2022/02/23 12:54:55;;;;;;;2.63;2.00;;;-3.30;60.90;;;;;;5121958;28;20290;-60
2022/02/23 12:57:26;;;;;;;1.85;1.60;;;-3.30;61.10;;;;;;5123014;28;20220;-61
2022/02/23 12:59:59;;;;;;;5.07;1.70;;;-3.40;62.80;;;;;;5113669;28;20211;-60
2022/02/23 13:02:30;;;;;;;2.70;1.70;;;-3.40;59.10;;;;;;5123337;28;20607;-60
2022/02/23 13:05:01;;;;;;;1.50;1.40;;;-3.30;62.10;;;;;;5122622;28;20200;-61
2022/02/23 13:07:39;;;;;;;1.40;1.30;;;-3.30;60.50;;;;;;5122182;28;20195;-61
2022/02/23 13:10:11;;;;;;;1.80;1.70;;;-3.30;65.80;;;;;;5122620;28;20208;-60
2022/02/23 13:12:48;;;;;;;2.53;1.67;;;-3.20;68.30;;;;;;5122382;28;20227;-61
2022/02/23 13:15:20;;;;;;;3.75;2.10;;;-3.30;64.80;;;;;;5112831;28;20279;-60
2022/02/23 13:17:51;;;;;;;2.25;1.52;;;-3.30;60.20;;;;;;5123084;28;20184;-60
2022/02/23 13:20:23;;;;;;;2.03;1.67;;;-3.30;62.20;;;;;;5122512;28;20258;-61
2022/02/23 13:23:02;;;;;;;1.65;1.42;;;-3.30;62.00;;;;;;5121836;28;20236;-61
2022/02/23 13:25:33;;;;;;;1.80;1.70;;;-3.40;63.60;;;;;;5122229;28;20250;-60